Time;durP1;ratioP1;P1;durP2;ratioP2;P2;SDS_P1;SDS_P2;PMS_P1;PMS_P2;Temp;Humidity;BMP_temperature;BMP_pressure;BME280_temperature;BME280_humidity;BME280_pressure;Samples;Min_cycle;Max_cycle;Signal;HPM_P1;HPM_P2
2024/03/15 00:00:51;;;;;;;7.15;5.32;;;;;;;8.17;82.50;99929.03;2455438;29;20053;-84
2024/03/15 00:02:05;;;;;;;5.35;4.85;;;;;;;8.20;82.49;99929.00;2464307;29;20135;-81
2024/03/15 00:03:20;;;;;;;12.55;5.38;;;;;;;8.21;82.40;99922.03;2461335;29;20048;-82
2024/03/15 00:04:35;;;;;;;5.13;4.57;;;;;;;8.22;82.41;99929.84;2464835;29;20136;-83
2024/03/15 00:05:49;;;;;;;5.40;4.40;;;;;;;8.24;82.31;99929.84;2461044;29;20140;-82
2024/03/15 00:07:05;;;;;;;5.40;4.68;;;;;;;8.25;82.53;99929.81;2465746;29;20044;-82
2024/03/15 00:08:18;;;;;;;7.93;6.25;;;;;;;8.30;82.49;99930.63;2461258;29;20049;-81
2024/03/15 00:09:33;;;;;;;8.30;5.10;;;;;;;8.37;82.33;99933.16;2450210;29;20064;-81
2024/03/15 00:10:47;;;;;;;7.40;4.95;;;;;;;8.42;82.20;99934.00;2455562;29;20076;-81
2024/03/15 00:12:01;;;;;;;6.10;5.00;;;;;;;8.46;82.30;99928.72;2455810;29;20071;-83
2024/03/15 00:13:15;;;;;;;5.78;4.88;;;;;;;8.51;82.17;99929.53;2456905;29;20049;-83
2024/03/15 00:14:29;;;;;;;6.55;5.68;;;;;;;8.57;82.24;99935.53;2466105;29;20438;-83
2024/03/15 00:15:43;;;;;;;7.25;5.15;;;;;;;8.59;82.19;99937.25;2467388;29;20056;-82
2024/03/15 00:16:58;;;;;;;6.65;4.75;;;;;;;8.62;82.04;99933.75;2466704;29;20055;-81
2024/03/15 00:18:11;;;;;;;7.45;4.70;;;;;;;8.63;81.92;99938.94;2467702;29;20044;-82
2024/03/15 00:19:26;;;;;;;5.25;4.30;;;;;;;8.65;81.92;99937.19;2466820;29;20489;-81
2024/03/15 00:20:40;;;;;;;5.00;4.45;;;;;;;8.67;82.05;99931.97;2468102;29;20154;-81
2024/03/15 00:21:54;;;;;;;4.85;4.43;;;;;;;8.68;81.89;99934.56;2465769;29;20048;-82
2024/03/15 00:23:09;;;;;;;5.45;4.22;;;;;;;8.68;81.82;99939.75;2467499;29;20054;-82
2024/03/15 00:24:22;;;;;;;4.90;4.40;;;;;;;8.70;81.96;99932.81;2466555;29;20096;-82
2024/03/15 00:25:37;;;;;;;8.10;4.78;;;;;;;8.71;81.94;99923.25;2464086;29;20081;-82
2024/03/15 00:26:50;;;;;;;7.40;5.10;;;;;;;8.71;81.93;99937.09;2450947;29;20067;-82
2024/03/15 00:28:05;;;;;;;8.25;4.55;;;;;;;8.72;81.64;99924.97;2452424;29;20118;-82
2024/03/15 00:29:19;;;;;;;5.82;4.35;;;;;;;8.72;81.84;99932.75;2458977;28;20058;-81
2024/03/15 00:30:33;;;;;;;8.02;5.00;;;;;;;8.72;81.57;99925.84;2464699;29;20055;-81
2024/03/15 00:31:47;;;;;;;4.93;4.50;;;;;;;8.73;81.57;99927.56;2468450;29;20052;-80
2024/03/15 00:33:01;;;;;;;7.13;5.25;;;;;;;8.76;81.71;99928.41;2465438;29;20809;-80
2024/03/15 00:34:15;;;;;;;6.80;6.10;;;;;;;8.78;81.68;99934.41;2457877;29;20131;-81
2024/03/15 00:35:30;;;;;;;6.80;5.85;;;;;;;8.79;81.82;99926.59;2465171;29;20083;-83
2024/03/15 00:36:44;;;;;;;10.82;6.40;;;;;;;8.81;81.59;99929.19;2466479;29;20438;-81
2024/03/15 00:37:58;;;;;;;7.28;5.38;;;;;;;8.82;81.61;99933.50;2464387;29;20056;-80
2024/03/15 00:39:14;;;;;;;9.07;5.90;;;;;;;8.84;81.47;99935.22;2467040;29;20049;-82
2024/03/15 00:40:29;;;;;;;10.75;7.70;;;;;;;8.86;81.45;99935.22;2471285;29;20476;-81
2024/03/15 00:41:42;;;;;;;6.97;5.78;;;;;;;8.87;81.54;99926.50;2460822;29;20053;-82
2024/03/15 00:42:58;;;;;;;7.57;6.20;;;;;;;8.88;81.56;99926.50;2454350;29;20064;-81
2024/03/15 00:44:13;;;;;;;6.35;5.68;;;;;;;8.89;81.31;99927.34;2460195;29;20053;-82
2024/03/15 00:45:28;;;;;;;10.73;5.63;;;;;;;8.89;81.56;99928.22;2461189;29;20056;-81
2024/03/15 00:46:42;;;;;;;6.22;5.70;;;;;;;8.91;81.55;99928.19;2464263;29;20052;-82
2024/03/15 00:47:56;;;;;;;11.75;6.38;;;;;;;8.93;81.59;99929.00;2463639;29;20048;-82
2024/03/15 00:49:10;;;;;;;8.55;5.22;;;;;;;8.94;81.56;99926.41;2463434;29;20060;-81
2024/03/15 00:50:25;;;;;;;5.97;5.15;;;;;;;8.95;81.42;99928.13;2455029;29;20049;-81
2024/03/15 00:51:38;;;;;;;9.20;6.38;;;;;;;8.97;81.37;99924.66;2454687;29;20491;-82
2024/03/15 00:52:57;;;;;;;6.15;5.55;;;;;;;8.99;81.31;99921.16;2452735;29;20060;-81
2024/03/15 00:54:10;;;;;;;8.50;5.88;;;;;;;9.00;81.41;99925.47;2454542;29;20076;-81
2024/03/15 00:55:30;;;;;;;16.05;5.53;;;;;;;9.01;81.38;99919.38;2457823;29;20059;-81
2024/03/15 00:56:43;;;;;;;9.60;5.90;;;;;;;9.03;81.34;99922.81;2454386;29;20045;-81
2024/03/15 00:57:59;;;;;;;5.88;5.18;;;;;;;9.05;81.27;99918.44;2453948;29;20048;-81
2024/03/15 00:59:13;;;;;;;6.38;4.95;;;;;;;9.04;81.26;99921.94;2465807;29;20151;-80
2024/03/15 01:00:28;;;;;;;6.22;5.03;;;;;;;9.05;81.31;99912.38;2460919;29;20056;-81
2024/03/15 01:01:42;;;;;;;7.25;4.65;;;;;;;9.04;81.15;99916.72;2463560;29;20063;-82
2024/03/15 01:02:57;;;;;;;6.63;4.20;;;;;;;9.03;81.23;99907.19;2464676;29;20485;-81
2024/03/15 01:04:13;;;;;;;10.95;5.10;;;;;;;9.03;81.00;99919.34;2461273;29;20055;-82
2024/03/15 01:05:27;;;;;;;10.60;5.40;;;;;;;9.01;80.97;99913.28;2458209;29;20084;-81
2024/03/15 01:06:41;;;;;;;5.43;4.93;;;;;;;9.01;81.13;99914.19;2460105;29;20063;-82
2024/03/15 01:07:56;;;;;;;10.13;6.18;;;;;;;9.00;81.00;99912.44;2454084;29;20406;-82
2024/03/15 01:09:09;;;;;;;5.72;4.85;;;;;;;8.98;81.03;99911.59;2463223;29;20100;-81
2024/03/15 01:10:25;;;;;;;6.18;5.22;;;;;;;8.96;80.84;99916.00;2456641;29;20060;-80
2024/03/15 01:11:39;;;;;;;9.10;6.07;;;;;;;8.93;80.92;99906.47;2457569;29;20057;-80
2024/03/15 01:12:54;;;;;;;9.65;6.28;;;;;;;8.92;80.80;99912.53;2452143;29;20576;-79
2024/03/15 01:14:08;;;;;;;9.50;5.88;;;;;;;8.91;80.87;99905.63;2457324;29;20052;-81
2024/03/15 01:15:23;;;;;;;8.65;5.65;;;;;;;8.92;80.98;99906.50;2461476;29;20060;-82
2024/03/15 01:16:37;;;;;;;7.28;5.50;;;;;;;8.89;80.94;99902.19;2470883;29;20062;-80
2024/03/15 01:17:52;;;;;;;6.03;5.35;;;;;;;8.89;80.90;99903.94;2468790;29;20052;-82
2024/03/15 01:19:05;;;;;;;7.75;5.32;;;;;;;8.87;80.75;99898.75;2470307;29;20047;-84
2024/03/15 01:20:20;;;;;;;7.07;5.90;;;;;;;8.84;80.80;99893.59;2468093;29;20066;-81
2024/03/15 01:21:34;;;;;;;8.50;6.32;;;;;;;8.83;80.80;99896.19;2463205;29;20060;-80
2024/03/15 01:22:48;;;;;;;13.10;6.65;;;;;;;8.82;80.83;99897.09;2471441;29;20474;-81
2024/03/15 01:24:02;;;;;;;11.82;6.95;;;;;;;8.81;80.75;99892.78;2466777;29;20103;-81
2024/03/15 01:25:16;;;;;;;7.53;5.53;;;;;;;8.80;80.57;99891.03;2470145;29;20047;-80
2024/03/15 01:26:30;;;;;;;10.52;5.22;;;;;;;8.79;80.68;99894.53;2466554;29;20060;-81
2024/03/15 01:27:45;;;;;;;4.95;4.50;;;;;;;8.76;80.63;99897.19;2461671;29;20048;-82
2024/03/15 01:28:58;;;;;;;7.03;5.40;;;;;;;8.73;80.59;99898.94;2460851;29;20044;-80
2024/03/15 01:30:13;;;;;;;7.35;6.05;;;;;;;8.71;80.82;99895.47;2460951;29;20044;-82
2024/03/15 01:31:26;;;;;;;9.52;5.82;;;;;;;8.70;80.84;99891.19;2461478;29;20442;-81
2024/03/15 01:32:41;;;;;;;10.15;6.10;;;;;;;8.70;80.62;99895.53;2461252;29;20060;-82
2024/03/15 01:33:55;;;;;;;6.85;6.25;;;;;;;8.69;80.57;99885.97;2466750;29;20044;-80
2024/03/15 01:35:10;;;;;;;7.88;5.55;;;;;;;8.68;80.67;99890.31;2467352;29;20166;-81
2024/03/15 01:36:24;;;;;;;6.97;5.97;;;;;;;8.68;80.81;99882.53;2462054;29;20095;-82
2024/03/15 01:37:40;;;;;;;7.95;6.15;;;;;;;8.68;80.64;99889.47;2461022;29;20060;-81
2024/03/15 01:38:54;;;;;;;6.70;5.38;;;;;;;8.68;80.68;99887.72;2462540;29;20143;-80
2024/03/15 01:40:09;;;;;;;5.93;4.97;;;;;;;8.66;80.58;99889.47;2467045;29;20056;-80
2024/03/15 01:41:23;;;;;;;5.68;5.13;;;;;;;8.66;80.87;99892.09;2461239;29;20047;-80
2024/03/15 01:42:37;;;;;;;4.95;4.55;;;;;;;8.64;80.66;99888.63;2470030;29;20048;-81
2024/03/15 01:43:51;;;;;;;7.18;6.07;;;;;;;8.63;80.74;99886.06;2473944;29;20044;-83
2024/03/15 01:45:06;;;;;;;9.93;6.40;;;;;;;8.62;80.75;99887.81;2476836;29;20102;-81
2024/03/15 01:46:21;;;;;;;5.43;4.93;;;;;;;8.63;80.73;99891.28;2466850;29;20060;-81
2024/03/15 01:47:36;;;;;;;6.13;4.88;;;;;;;8.61;80.72;99891.28;2460579;29;20044;-79
2024/03/15 01:48:49;;;;;;;5.80;5.18;;;;;;;8.60;80.98;99892.19;2476616;29;20055;-80
2024/03/15 01:50:07;;;;;;;7.00;5.82;;;;;;;8.61;80.79;99887.81;2475098;29;20056;-80
2024/03/15 01:51:20;;;;;;;8.10;5.03;;;;;;;8.62;80.92;99885.22;2467273;29;20174;-82
2024/03/15 01:52:35;;;;;;;10.27;5.60;;;;;;;8.64;80.99;99888.63;2461186;29;20056;-81
2024/03/15 01:53:49;;;;;;;8.75;5.85;;;;;;;8.65;80.87;99898.19;2461323;29;20131;-80
2024/03/15 01:55:04;;;;;;;7.10;5.60;;;;;;;8.66;81.01;99886.03;2470907;29;20493;-81
2024/03/15 01:56:20;;;;;;;6.20;5.47;;;;;;;8.65;81.11;99902.53;2467896;29;20052;-81
2024/03/15 01:57:35;;;;;;;7.82;5.68;;;;;;;8.64;80.91;99893.84;2460087;29;20140;-79
2024/03/15 01:58:49;;;;;;;6.65;5.22;;;;;;;8.65;81.11;99892.97;2461510;29;20130;-81
2024/03/15 02:00:06;;;;;;;8.07;5.30;;;;;;;8.68;81.07;99898.13;2468189;29;20454;-81
2024/03/15 02:01:20;;;;;;;8.15;5.15;;;;;;;8.70;81.03;99896.38;2463533;29;20059;-80
2024/03/15 02:02:35;;;;;;;7.05;4.68;;;;;;;8.71;81.00;99892.03;2467292;29;20047;-78
2024/03/15 02:03:49;;;;;;;7.35;5.40;;;;;;;8.70;81.20;99890.31;2461898;29;20144;-80
2024/03/15 02:05:04;;;;;;;7.05;4.18;;;;;;;8.70;80.89;99890.31;2475552;29;20090;-79
2024/03/15 02:06:20;;;;;;;7.63;6.10;;;;;;;8.68;80.96;99895.53;2457329;29;20109;-79
2024/03/15 02:07:35;;;;;;;8.43;5.65;;;;;;;8.69;81.17;99897.25;2451616;29;20064;-79
2024/03/15 02:08:49;;;;;;;14.45;4.70;;;;;;;8.69;81.02;99894.63;2452286;29;20510;-81
2024/03/15 02:10:10;;;;;;;5.53;4.72;;;;;;;8.67;80.95;99891.22;2461073;29;20052;-82
2024/03/15 02:11:24;;;;;;;7.15;5.30;;;;;;;8.67;81.19;99896.44;2469927;29;20111;-82
2024/03/15 02:12:39;;;;;;;7.10;5.60;;;;;;;8.68;81.01;99889.47;2462563;29;20048;-81
2024/03/15 02:13:52;;;;;;;12.55;5.28;;;;;;;8.66;81.01;99892.09;2456902;29;20048;-81
2024/03/15 02:15:08;;;;;;;12.00;5.05;;;;;;;8.63;80.92;99880.88;2452898;29;20062;-81
2024/03/15 02:16:21;;;;;;;8.05;4.93;;;;;;;8.61;81.04;99880.88;2467094;29;20489;-81
2024/03/15 02:17:36;;;;;;;7.40;4.65;;;;;;;8.59;80.96;99879.19;2463812;29;21623;-81
2024/03/15 02:18:50;;;;;;;7.20;5.88;;;;;;;8.57;81.03;99884.41;2450771;29;20080;-82
2024/03/15 02:20:06;;;;;;;8.52;5.45;;;;;;;8.55;80.84;99883.56;2457926;29;20143;-82
2024/03/15 02:21:21;;;;;;;7.25;4.82;;;;;;;8.53;80.96;99880.13;2452072;29;20056;-81
2024/03/15 02:22:34;;;;;;;7.97;5.43;;;;;;;8.52;81.08;99897.47;2452581;29;20063;-81
2024/03/15 02:23:49;;;;;;;10.43;4.82;;;;;;;8.51;80.86;99884.47;2452391;29;20519;-82
2024/03/15 02:25:03;;;;;;;9.32;5.72;;;;;;;8.49;81.12;99894.03;2452977;29;20068;-82
2024/03/15 02:26:18;;;;;;;6.57;5.05;;;;;;;8.49;80.91;99888.81;2469109;29;20047;-81
2024/03/15 02:27:32;;;;;;;6.75;5.80;;;;;;;8.47;81.18;99886.25;2476797;29;20048;-82
2024/03/15 02:28:47;;;;;;;6.00;5.05;;;;;;;8.46;81.11;99891.47;2467309;29;20056;-82
2024/03/15 02:30:01;;;;;;;9.10;5.32;;;;;;;8.47;81.15;99893.22;2456315;29;20063;-83
2024/03/15 02:31:16;;;;;;;4.85;4.22;;;;;;;8.45;81.22;99898.41;2452391;29;20053;-82
2024/03/15 02:32:30;;;;;;;6.07;5.15;;;;;;;8.45;81.20;99898.41;2458037;29;20075;-83
2024/03/15 02:33:45;;;;;;;8.98;5.85;;;;;;;8.43;80.95;99907.97;2452575;29;20052;-82
2024/03/15 02:34:59;;;;;;;5.90;5.20;;;;;;;8.43;81.21;99912.31;2455134;29;20056;-82
2024/03/15 02:36:15;;;;;;;5.45;4.50;;;;;;;8.43;81.21;99899.31;2460851;29;20056;-81
2024/03/15 02:37:29;;;;;;;5.47;4.97;;;;;;;8.41;81.05;99904.53;2466682;29;20047;-81
2024/03/15 02:38:47;;;;;;;8.88;5.20;;;;;;;8.39;81.12;99900.19;2460070;29;20048;-83
2024/03/15 02:40:01;;;;;;;8.77;4.85;;;;;;;8.36;81.13;99902.81;2458672;29;20062;-83
2024/03/15 02:41:15;;;;;;;7.53;6.22;;;;;;;8.33;81.13;99906.31;2463054;29;20080;-83
2024/03/15 02:42:29;;;;;;;20.33;5.78;;;;;;;8.30;80.96;99906.38;2464752;29;20052;-83
2024/03/15 02:43:44;;;;;;;8.25;6.57;;;;;;;8.29;81.11;99915.91;2471946;29;20044;-83
2024/03/15 02:44:58;;;;;;;6.63;5.18;;;;;;;8.29;81.14;99907.25;2461206;29;20071;-83
2024/03/15 02:46:12;;;;;;;5.95;4.97;;;;;;;8.27;81.32;99906.41;2457784;29;20049;-82
2024/03/15 02:47:26;;;;;;;7.80;4.85;;;;;;;8.25;81.16;99903.81;2464283;29;20131;-83
2024/03/15 02:48:40;;;;;;;5.15;4.53;;;;;;;8.23;81.38;99909.91;2467939;29;20059;-83
2024/03/15 02:49:56;;;;;;;11.38;4.70;;;;;;;8.20;81.42;99908.19;2461064;29;20065;-81
2024/03/15 02:51:11;;;;;;;7.95;4.80;;;;;;;8.20;81.47;99905.59;2460615;29;20079;-83
2024/03/15 02:52:25;;;;;;;5.97;5.38;;;;;;;8.19;81.55;99911.69;2474578;29;20080;-83
2024/03/15 02:53:39;;;;;;;8.38;6.13;;;;;;;8.20;81.70;99907.34;2471707;29;20051;-82
2024/03/15 02:54:53;;;;;;;8.52;5.38;;;;;;;8.21;81.65;99909.94;2478081;29;20790;-82
2024/03/15 02:56:08;;;;;;;6.35;5.20;;;;;;;8.20;81.60;99913.41;2481676;29;20062;-83
2024/03/15 02:57:21;;;;;;;7.78;4.80;;;;;;;8.19;81.49;99908.22;2468069;29;20059;-82
2024/03/15 02:58:36;;;;;;;7.57;5.28;;;;;;;8.16;81.57;99906.53;2464911;29;20441;-82
2024/03/15 02:59:50;;;;;;;7.30;5.38;;;;;;;8.14;81.61;99910.03;2458444;29;20135;-82
2024/03/15 03:01:05;;;;;;;15.10;6.53;;;;;;;8.12;81.70;99910.03;2473849;29;20534;-83
2024/03/15 03:02:21;;;;;;;7.07;4.70;;;;;;;8.10;81.54;99909.16;2469630;29;20060;-83
2024/03/15 03:03:36;;;;;;;10.35;4.60;;;;;;;8.08;81.77;99918.75;2456635;29;20053;-83
2024/03/15 03:04:51;;;;;;;13.07;6.65;;;;;;;8.05;81.67;99908.34;2462280;29;20072;-83
2024/03/15 03:06:06;;;;;;;6.75;6.05;;;;;;;8.02;81.63;99911.00;2464787;29;20077;-83
2024/03/15 03:07:19;;;;;;;12.73;5.45;;;;;;;8.01;81.66;99914.47;2466285;29;20056;-83
2024/03/15 03:08:35;;;;;;;9.60;5.45;;;;;;;8.00;81.98;99912.75;2456268;29;20062;-83
2024/03/15 03:09:50;;;;;;;11.07;5.55;;;;;;;7.99;81.96;99916.22;2467236;29;20059;-83
2024/03/15 03:11:06;;;;;;;6.13;4.78;;;;;;;7.98;81.75;99919.72;2467356;29;20048;-83
2024/03/15 03:12:21;;;;;;;7.82;5.65;;;;;;;7.95;81.96;99917.13;2473330;29;20056;-82
2024/03/15 03:13:34;;;;;;;7.05;5.00;;;;;;;7.95;82.14;99914.53;2461985;29;20068;-83
2024/03/15 03:14:49;;;;;;;6.35;5.70;;;;;;;7.94;81.88;99907.63;2462684;29;20564;-83
2024/03/15 03:16:03;;;;;;;6.10;5.18;;;;;;;7.94;82.06;99907.63;2476311;29;20052;-82
2024/03/15 03:17:17;;;;;;;8.40;5.85;;;;;;;7.90;82.28;99911.09;2473146;29;20052;-81
2024/03/15 03:18:31;;;;;;;9.68;6.40;;;;;;;7.93;82.31;99916.28;2473738;29;20052;-82
2024/03/15 03:19:46;;;;;;;8.05;5.53;;;;;;;7.94;82.17;99920.59;2469017;29;20052;-82
2024/03/15 03:20:59;;;;;;;7.32;6.65;;;;;;;7.96;82.46;99919.72;2470145;29;20064;-81
2024/03/15 03:22:17;;;;;;;5.55;5.05;;;;;;;7.97;82.64;99918.81;2466394;29;20052;-82
2024/03/15 03:23:33;;;;;;;7.88;6.00;;;;;;;8.00;82.49;99917.94;2467592;29;20048;-81
2024/03/15 03:24:48;;;;;;;5.82;5.32;;;;;;;8.00;82.64;99908.44;2464847;29;20582;-82
2024/03/15 03:26:01;;;;;;;9.07;5.03;;;;;;;8.01;82.48;99914.47;2459500;29;20434;-81
2024/03/15 03:27:16;;;;;;;6.07;5.53;;;;;;;8.01;82.62;99919.69;2464624;29;20056;-81
2024/03/15 03:28:30;;;;;;;5.75;5.25;;;;;;;8.04;82.71;99911.84;2473410;29;20059;-82
2024/03/15 03:29:44;;;;;;;5.07;4.57;;;;;;;8.08;82.66;99918.75;2462410;29;20044;-80
2024/03/15 03:30:58;;;;;;;7.53;5.75;;;;;;;8.11;82.54;99923.06;2475840;29;20066;-81
2024/03/15 03:32:12;;;;;;;7.10;5.75;;;;;;;8.12;82.78;99927.34;2474166;29;20056;-80
2024/03/15 03:33:26;;;;;;;11.65;5.80;;;;;;;8.13;82.66;99916.97;2456846;29;20053;-81
2024/03/15 03:34:41;;;;;;;7.70;5.78;;;;;;;8.13;82.78;99919.56;2464719;29;20052;-82
2024/03/15 03:35:56;;;;;;;8.48;5.28;;;;;;;8.14;82.43;99913.47;2465383;29;20059;-83
2024/03/15 03:37:12;;;;;;;4.18;3.80;;;;;;;8.18;82.87;99922.09;2465069;29;20114;-80
2024/03/15 03:38:26;;;;;;;6.05;4.68;;;;;;;8.24;82.76;99920.28;2467495;29;20044;-82
2024/03/15 03:39:40;;;;;;;7.97;5.13;;;;;;;8.28;82.61;99919.38;2461186;29;20167;-81
2024/03/15 03:40:54;;;;;;;8.55;5.53;;;;;;;8.30;82.47;99915.00;2467354;29;20545;-82
2024/03/15 03:42:11;;;;;;;6.47;4.55;;;;;;;8.30;82.64;99915.00;2464438;29;20056;-82
2024/03/15 03:43:25;;;;;;;8.68;6.25;;;;;;;8.33;82.74;99919.31;2471608;29;20060;-83
2024/03/15 03:44:41;;;;;;;8.98;5.63;;;;;;;8.36;82.66;99926.22;2467393;29;20049;-83
2024/03/15 03:45:56;;;;;;;6.47;4.30;;;;;;;8.40;82.42;99930.56;2460134;29;20060;-84
2024/03/15 03:47:11;;;;;;;10.68;4.32;;;;;;;8.40;82.47;99923.63;2467243;29;20067;-83
2024/03/15 03:48:25;;;;;;;4.30;3.83;;;;;;;8.45;82.45;99920.97;2474594;29;20055;-83
2024/03/15 03:49:40;;;;;;;11.65;4.15;;;;;;;8.50;82.32;99921.78;2469664;29;20055;-83
2024/03/15 03:50:53;;;;;;;7.93;5.72;;;;;;;8.57;82.33;99922.53;2458392;29;20059;-83
2024/03/15 03:52:08;;;;;;;5.45;3.28;;;;;;;8.62;81.82;99924.22;2454138;29;20462;-82
2024/03/15 03:53:21;;;;;;;4.03;3.10;;;;;;;8.70;82.18;99919.78;2458009;29;20056;-82
2024/03/15 03:54:37;;;;;;;5.05;3.13;;;;;;;8.77;81.73;99927.50;2472818;29;20048;-83
2024/03/15 03:55:50;;;;;;;8.70;3.40;;;;;;;8.81;81.40;99937.84;2476302;29;20437;-82
2024/03/15 03:57:05;;;;;;;4.80;3.75;;;;;;;8.85;81.20;99936.06;2479021;29;20163;-82
2024/03/15 03:58:18;;;;;;;8.43;4.47;;;;;;;8.87;81.00;99936.91;2468015;29;20064;-82
2024/03/15 03:59:33;;;;;;;3.78;2.95;;;;;;;8.94;80.64;99941.16;2463519;29;20056;-82
2024/03/15 04:00:47;;;;;;;4.63;2.85;;;;;;;9.01;80.46;99939.31;2463642;29;20094;-81
2024/03/15 04:02:01;;;;;;;4.18;2.50;;;;;;;9.07;79.96;99937.50;2457002;29;20714;-81
2024/03/15 04:03:15;;;;;;;5.20;3.10;;;;;;;9.13;79.82;99945.22;2457688;29;20052;-82
2024/03/15 04:04:30;;;;;;;2.90;2.70;;;;;;;9.18;79.29;99934.75;2458465;29;20083;-83
2024/03/15 04:05:43;;;;;;;4.53;2.88;;;;;;;9.23;78.96;99942.50;2458182;29;20049;-82
2024/03/15 04:06:58;;;;;;;3.33;2.10;;;;;;;9.25;78.69;99941.59;2467446;29;20059;-82
2024/03/15 04:08:12;;;;;;;4.20;2.70;;;;;;;9.30;78.39;99951.94;2463430;29;20048;-82
2024/03/15 04:09:26;;;;;;;6.90;2.90;;;;;;;9.34;77.98;99948.41;2467028;29;20052;-83
2024/03/15 04:10:40;;;;;;;7.20;3.13;;;;;;;9.36;77.55;99944.88;2462770;29;20052;-81
2024/03/15 04:11:55;;;;;;;3.50;3.08;;;;;;;9.38;77.39;99950.09;2465554;29;20053;-83
2024/03/15 04:13:09;;;;;;;3.67;2.70;;;;;;;9.41;76.95;99952.63;2463304;29;20059;-83
2024/03/15 04:14:23;;;;;;;3.58;2.70;;;;;;;9.45;76.81;99949.13;2463469;29;20044;-82
2024/03/15 04:15:37;;;;;;;2.50;2.30;;;;;;;9.49;76.73;99947.31;2464054;29;20048;-82
2024/03/15 04:16:51;;;;;;;3.35;2.28;;;;;;;9.54;76.24;99958.53;2458451;29;20056;-82
2024/03/15 04:18:05;;;;;;;4.25;3.03;;;;;;;9.58;75.92;99949.78;2459057;29;20048;-82
2024/03/15 04:19:20;;;;;;;2.83;2.58;;;;;;;9.61;75.66;99950.59;2456881;29;20387;-82
2024/03/15 04:20:33;;;;;;;3.63;2.65;;;;;;;9.64;75.44;99957.50;2466795;29;20071;-83
2024/03/15 04:21:48;;;;;;;4.40;2.53;;;;;;;9.63;75.24;99950.59;2468225;29;20423;-81
2024/03/15 04:23:02;;;;;;;9.75;4.63;;;;;;;9.61;75.17;99949.75;2457207;29;20567;-82
2024/03/15 04:24:16;;;;;;;3.50;2.65;;;;;;;9.59;74.91;99949.75;2453909;29;20112;-82
2024/03/15 04:25:30;;;;;;;6.53;3.08;;;;;;;9.59;74.81;99951.50;2456232;29;20062;-82
2024/03/15 04:26:44;;;;;;;11.18;4.78;;;;;;;9.58;74.75;99955.84;2454784;29;20063;-82
2024/03/15 04:27:58;;;;;;;4.00;2.70;;;;;;;9.53;74.87;99957.66;2454322;29;20523;-83
2024/03/15 04:29:13;;;;;;;3.58;2.67;;;;;;;9.50;74.86;99947.31;2459630;29;20052;-82
2024/03/15 04:30:27;;;;;;;4.25;2.78;;;;;;;9.48;74.83;99956.03;2458694;29;20392;-82
2024/03/15 04:31:41;;;;;;;6.75;4.05;;;;;;;9.44;74.78;99952.59;2470654;29;20102;-82
2024/03/15 04:32:55;;;;;;;4.78;2.92;;;;;;;9.42;74.88;99954.34;2461980;29;20048;-81
2024/03/15 04:34:11;;;;;;;2.90;2.63;;;;;;;9.38;74.92;99960.50;2454089;29;20049;-81
2024/03/15 04:35:27;;;;;;;3.53;3.17;;;;;;;9.34;74.99;99959.66;2460296;29;20079;-82
2024/03/15 04:36:43;;;;;;;5.53;2.63;;;;;;;9.32;74.97;99963.19;2455360;29;20056;-81
2024/03/15 04:37:57;;;;;;;5.20;2.72;;;;;;;9.28;75.08;99958.91;2458164;29;20127;-81
2024/03/15 04:39:12;;;;;;;4.97;3.80;;;;;;;9.26;75.00;99965.88;2467759;29;20088;-82
2024/03/15 04:40:28;;;;;;;3.55;3.20;;;;;;;9.24;75.14;99959.81;2464163;29;20052;-81
2024/03/15 04:41:42;;;;;;;3.85;3.15;;;;;;;9.23;75.04;99963.31;2463737;29;20045;-81
2024/03/15 04:42:56;;;;;;;6.85;3.65;;;;;;;9.22;74.96;99966.81;2459176;29;20052;-82
2024/03/15 04:44:11;;;;;;;4.05;3.10;;;;;;;9.18;75.16;99966.84;2463377;29;20460;-82
2024/03/15 04:45:24;;;;;;;7.40;3.58;;;;;;;9.14;75.24;99966.94;2466147;29;20433;-81
2024/03/15 04:46:39;;;;;;;6.70;3.40;;;;;;;9.09;75.26;99961.78;2458059;29;20044;-82
2024/03/15 04:47:53;;;;;;;3.58;3.28;;;;;;;9.08;75.36;99962.66;2462989;29;20060;-81
2024/03/15 04:49:08;;;;;;;6.90;3.53;;;;;;;9.04;75.21;99962.72;2468051;29;20141;-81
2024/03/15 04:50:21;;;;;;;4.20;3.40;;;;;;;8.99;75.32;99964.53;2462456;29;20131;-82
2024/03/15 04:51:37;;;;;;;5.82;4.60;;;;;;;8.95;75.27;99972.34;2466564;29;20048;-81
2024/03/15 04:52:51;;;;;;;8.05;3.28;;;;;;;8.90;75.54;99971.56;2465249;29;20090;-81
2024/03/15 04:54:08;;;;;;;4.57;3.72;;;;;;;8.85;75.63;99968.16;2458151;29;20462;-82
2024/03/15 04:55:22;;;;;;;3.42;3.10;;;;;;;8.82;75.65;99969.94;2459773;29;20053;-81
2024/03/15 04:56:36;;;;;;;6.82;4.57;;;;;;;8.79;75.63;99972.59;2461702;29;20661;-82
2024/03/15 04:57:50;;;;;;;3.78;3.47;;;;;;;8.78;75.79;99970.84;2458701;29;20048;-81
2024/03/15 04:59:06;;;;;;;4.15;3.55;;;;;;;8.78;75.62;99965.63;2473247;29;20078;-81
2024/03/15 05:00:20;;;;;;;9.23;3.40;;;;;;;8.77;75.62;99970.00;2480265;29;20055;-81
2024/03/15 05:01:34;;;;;;;9.02;3.10;;;;;;;8.79;75.61;99969.97;2465552;29;20056;-81
2024/03/15 05:02:48;;;;;;;5.00;3.03;;;;;;;8.79;75.68;99975.19;2468298;29;20054;-81
2024/03/15 05:04:03;;;;;;;4.40;2.90;;;;;;;8.82;75.56;99972.53;2465106;29;20063;-81
2024/03/15 05:05:16;;;;;;;3.15;2.80;;;;;;;8.84;75.24;99976.84;2465978;29;20056;-81
2024/03/15 05:06:31;;;;;;;3.83;3.08;;;;;;;8.85;75.31;99985.50;2472695;29;20052;-82
2024/03/15 05:07:46;;;;;;;6.30;3.20;;;;;;;8.86;75.06;99990.72;2473812;29;20070;-80
2024/03/15 05:09:00;;;;;;;4.65;3.08;;;;;;;8.84;74.95;99984.66;2471428;29;20485;-82
2024/03/15 05:10:14;;;;;;;3.53;2.67;;;;;;;8.83;75.04;99982.06;2472678;29;20047;-80
2024/03/15 05:11:29;;;;;;;4.53;3.03;;;;;;;8.80;75.10;99980.34;2470810;29;20144;-84
2024/03/15 05:12:43;;;;;;;3.88;2.92;;;;;;;8.78;74.99;99989.94;2470545;29;20060;-80
2024/03/15 05:13:57;;;;;;;4.97;4.43;;;;;;;8.76;74.87;99978.69;2454671;29;20558;-81
2024/03/15 05:15:12;;;;;;;4.53;3.53;;;;;;;8.73;75.00;99986.53;2454971;29;20083;-80
2024/03/15 05:16:26;;;;;;;3.20;2.90;;;;;;;8.71;74.81;99985.69;2462199;29;20048;-80
2024/03/15 05:17:40;;;;;;;11.25;3.63;;;;;;;8.71;74.96;99986.53;2460776;29;20045;-79
2024/03/15 05:18:56;;;;;;;7.45;3.08;;;;;;;8.70;75.09;99994.38;2461649;29;20049;-80
2024/03/15 05:20:12;;;;;;;7.30;2.95;;;;;;;8.71;74.94;99988.28;2462679;29;20079;-80
2024/03/15 05:21:26;;;;;;;6.00;2.78;;;;;;;8.70;74.90;99990.03;2456714;29;20053;-80
2024/03/15 05:22:40;;;;;;;4.38;2.85;;;;;;;8.68;74.98;99990.94;2455335;29;20060;-80
2024/03/15 05:23:54;;;;;;;6.82;3.15;;;;;;;8.67;75.04;99995.28;2458238;29;20056;-82
2024/03/15 05:25:09;;;;;;;4.18;2.80;;;;;;;8.63;74.81;99998.78;2466694;29;20052;-80
2024/03/15 05:26:24;;;;;;;6.70;3.17;;;;;;;8.58;74.94;99991.91;2459284;29;20523;-81
2024/03/15 05:27:38;;;;;;;4.32;3.92;;;;;;;8.54;75.01;99991.06;2457201;29;20052;-80
2024/03/15 05:28:53;;;;;;;3.00;2.80;;;;;;;8.53;75.29;99999.75;2469165;29;20044;-80
2024/03/15 05:30:07;;;;;;;5.60;3.05;;;;;;;8.47;75.23;99997.22;2473219;29;20056;-80
2024/03/15 05:31:23;;;;;;;8.05;4.90;;;;;;;8.42;75.40;100005.06;2463361;29;20066;-80
2024/03/15 05:32:37;;;;;;;5.82;2.83;;;;;;;8.36;75.45;99999.88;2459121;29;20454;-81
2024/03/15 05:33:51;;;;;;;8.75;3.22;;;;;;;8.31;75.60;99996.47;2468928;29;20083;-80
2024/03/15 05:35:06;;;;;;;5.97;4.43;;;;;;;8.24;75.92;99989.63;2464143;29;20131;-81
2024/03/15 05:36:20;;;;;;;7.97;3.47;;;;;;;8.20;76.11;100006.13;2464604;29;20104;-80
2024/03/15 05:37:34;;;;;;;5.80;4.10;;;;;;;8.14;76.02;100004.44;2461726;29;20461;-81
2024/03/15 05:38:49;;;;;;;6.28;3.67;;;;;;;8.09;76.43;99999.28;2457747;29;20052;-79
2024/03/15 05:40:04;;;;;;;5.78;3.13;;;;;;;8.04;76.16;100001.06;2460045;29;20056;-80
2024/03/15 05:41:19;;;;;;;3.95;3.17;;;;;;;7.99;76.51;100007.16;2463985;29;20084;-79
2024/03/15 05:42:33;;;;;;;6.10;2.83;;;;;;;7.94;76.40;100001.16;2462132;29;20056;-79
2024/03/15 05:43:49;;;;;;;7.28;3.33;;;;;;;7.89;76.75;99998.59;2460729;29;20510;-79
2024/03/15 05:45:03;;;;;;;3.75;2.90;;;;;;;7.86;76.70;100004.66;2455019;29;20055;-81
2024/03/15 05:46:18;;;;;;;5.20;3.35;;;;;;;7.89;76.93;100010.72;2460883;29;20510;-80
2024/03/15 05:47:32;;;;;;;5.60;3.33;;;;;;;7.89;77.08;100003.78;2459615;29;20465;-80
2024/03/15 05:48:47;;;;;;;5.72;5.03;;;;;;;7.87;77.01;100013.31;2458168;29;20045;-80
2024/03/15 05:50:03;;;;;;;8.90;5.18;;;;;;;7.91;77.39;100006.38;2450559;29;20052;-80
2024/03/15 05:51:18;;;;;;;9.45;8.40;;;;;;;7.96;77.26;100007.19;2461435;29;20112;-79
2024/03/15 05:52:32;;;;;;;7.32;5.13;;;;;;;8.00;77.30;100011.47;2461224;29;20052;-81
2024/03/15 05:53:47;;;;;;;12.68;7.07;;;;;;;8.05;77.12;100014.91;2460016;29;20048;-80
2024/03/15 05:55:00;;;;;;;4.20;3.60;;;;;;;8.10;77.07;100013.13;2458861;29;20134;-80